Ward Cove, Alaska
Current Conditions -  °F | °C
As of 4:53 AM on Wednesday 28 Jan 2015 (Local Time) from PAKT Reporting Station
Light Rain Light Rain  
Wind Chill: 31°   Ceiling: 2500
Heat Index: 40°   Visibility: 8mi
Dew Point: 35°   Wind: 17mph
Humidity: 83%   Direction: 140°SE
Pressure: 30.21"   Gusts: 24mph
Location:  55.4°N, 131.74°W
Report Text: PAKT 281353Z AUTO 14015G21KT 8SM -RA SCT020 OVC025 04/02 A3021 RMK AO2 SLP229 P0005 T00440017 TSNO
Loading
Personal Weather Stations






























Interactive Weather Map New forecast layout! Learn more

10-Day Weather Forecast

Advertisements
Track Severe Weather on mobile